createdAt,value
2023-02-11T00:05:13.553Z,98.69
2023-02-11T00:10:35.417Z,98.62
2023-02-11T00:15:57.266Z,98.47
2023-02-11T00:21:22.192Z,97.62
2023-02-11T00:26:44.000Z,97.23
2023-02-11T00:32:06.374Z,95.43
2023-02-11T00:37:28.233Z,95.54
2023-02-11T00:42:50.120Z,94.88
2023-02-11T00:48:11.953Z,93.14
2023-02-11T00:53:34.826Z,92.43
2023-02-11T00:58:56.626Z,93.04
2023-02-11T01:04:18.531Z,93.35
2023-02-11T01:09:40.396Z,94.26
2023-02-11T01:15:02.512Z,93.64
2023-02-11T01:20:27.738Z,93.41
2023-02-11T01:25:50.446Z,92.71
2023-02-11T01:31:12.936Z,93.88
2023-02-11T01:36:34.843Z,93.05
2023-02-11T01:41:56.660Z,93.16
2023-02-11T01:47:19.789Z,92.21
2023-02-11T01:52:42.016Z,93.18
2023-02-11T01:58:05.264Z,92.81
2023-02-11T02:03:28.715Z,92.75
2023-02-11T02:09:01.376Z,93.19
2023-02-11T02:14:23.208Z,93.95
2023-02-11T02:19:54.302Z,93.09
2023-02-11T02:25:35.515Z,91.77
2023-02-11T02:31:34.877Z,91.88
2023-02-11T02:37:12.549Z,92.70
2023-02-11T02:42:35.728Z,92.58
2023-02-11T02:47:58.331Z,91.65
2023-02-11T02:53:56.712Z,91.30
2023-02-11T02:59:18.472Z,92.46
2023-02-11T03:05:01.634Z,91.84
2023-02-11T03:10:36.510Z,91.47
2023-02-11T03:16:01.874Z,91.75
2023-02-11T03:21:24.767Z,91.64
2023-02-11T03:26:49.367Z,91.20
2023-02-11T03:32:14.187Z,90.90
2023-02-11T03:37:45.500Z,91.17
2023-02-11T03:43:34.917Z,89.65
2023-02-11T03:49:02.852Z,90.72
2023-02-11T03:54:30.441Z,89.92
2023-02-11T03:59:55.814Z,90.08
2023-02-11T04:05:17.811Z,89.72
2023-02-11T04:10:39.702Z,88.45
2023-02-11T04:16:01.576Z,88.89
2023-02-11T04:21:23.435Z,87.91
2023-02-11T04:26:45.281Z,88.33
2023-02-11T04:32:07.436Z,87.69
2023-02-11T04:37:29.430Z,87.61
2023-02-11T04:42:51.262Z,87.09
2023-02-11T04:48:13.098Z,87.43
2023-02-11T04:53:35.050Z,87.25
2023-02-11T04:58:56.925Z,86.74
2023-02-11T05:04:18.874Z,87.13
2023-02-11T05:09:40.814Z,87.45
2023-02-11T05:15:02.636Z,86.62
2023-02-11T05:20:24.589Z,86.93
2023-02-11T05:25:46.450Z,87.13
2023-02-11T05:31:08.874Z,86.00
2023-02-11T05:36:33.334Z,85.86
2023-02-11T05:41:55.358Z,85.66
2023-02-11T05:47:17.176Z,85.74
2023-02-11T05:52:39.109Z,85.34
2023-02-11T05:58:01.536Z,84.58
2023-02-11T06:03:23.424Z,85.50
2023-02-11T06:08:45.277Z,84.41
2023-02-11T06:14:07.117Z,84.30
2023-02-11T06:19:29.063Z,83.75
2023-02-11T06:25:01.441Z,84.20
2023-02-11T06:30:23.775Z,83.24
2023-02-11T06:35:45.634Z,82.92
2023-02-11T06:41:12.936Z,83.26
2023-02-11T06:46:34.876Z,82.77
2023-02-11T06:51:57.544Z,82.38
2023-02-11T06:57:19.360Z,81.75
2023-02-11T07:02:41.281Z,81.49
2023-02-11T07:08:03.160Z,82.20
2023-02-11T07:13:24.998Z,82.89
2023-02-11T07:18:48.288Z,83.29
2023-02-11T07:24:11.241Z,82.96
2023-02-11T07:29:33.351Z,84.00
2023-02-11T07:34:55.232Z,84.68
2023-02-11T07:40:17.266Z,86.63
2023-02-11T07:45:39.379Z,86.63
2023-02-11T07:51:10.248Z,88.99
2023-02-11T07:56:32.882Z,90.04
2023-02-11T08:01:54.776Z,90.41
2023-02-11T08:07:17.737Z,90.30
2023-02-11T08:12:39.733Z,92.63
2023-02-11T08:18:01.630Z,92.89
2023-02-11T08:23:23.469Z,94.13
2023-02-11T08:28:47.074Z,94.81
2023-02-11T08:34:09.214Z,95.94
2023-02-11T08:39:31.007Z,98.84
2023-02-11T08:44:52.849Z,100.00
2023-02-11T08:50:15.017Z,98.99
2023-02-11T08:55:37.023Z,99.22
2023-02-11T09:00:59.009Z,99.83
2023-02-11T09:06:22.749Z,98.85
2023-02-11T09:11:45.339Z,99.58
2023-02-11T09:17:07.250Z,99.40
2023-02-11T09:22:29.278Z,99.23
2023-02-11T09:27:51.356Z,98.71
2023-02-11T09:33:13.304Z,99.29
2023-02-11T09:38:35.158Z,98.59
2023-02-11T09:44:00.523Z,98.86
2023-02-11T09:49:31.071Z,99.38
2023-02-11T09:54:56.289Z,100.00
2023-02-11T10:00:18.224Z,100.00
2023-02-11T10:06:04.780Z,100.00
2023-02-11T10:11:37.410Z,100.00
2023-02-11T10:17:11.243Z,100.00
2023-02-11T10:22:41.764Z,100.00
2023-02-11T10:28:13.687Z,100.00
2023-02-11T10:33:47.509Z,100.00
2023-02-11T10:39:19.861Z,100.00
2023-02-11T10:44:55.039Z,100.00
2023-02-11T10:50:30.338Z,100.00
2023-02-11T10:55:57.074Z,100.00
2023-02-11T11:01:24.626Z,100.00
2023-02-11T11:06:47.177Z,100.00
2023-02-11T11:12:36.872Z,100.00
2023-02-11T11:18:22.155Z,100.00
2023-02-11T11:24:02.407Z,100.00
2023-02-11T11:29:35.780Z,100.00
2023-02-11T11:35:03.279Z,100.00
2023-02-11T11:40:30.647Z,100.00
2023-02-11T11:45:59.134Z,100.00
2023-02-11T11:51:22.308Z,100.00
2023-02-11T11:57:18.631Z,100.00
2023-02-11T12:02:59.030Z,100.00
2023-02-11T12:08:26.885Z,100.00
2023-02-11T12:14:02.812Z,100.00
2023-02-11T12:19:48.152Z,100.00
2023-02-11T12:25:22.185Z,100.00
2023-02-11T12:31:10.363Z,100.00
2023-02-11T12:36:44.878Z,100.00
2023-02-11T12:42:33.267Z,100.00
2023-02-11T12:48:11.387Z,100.00
2023-02-11T12:53:56.169Z,100.00
2023-02-11T12:59:22.671Z,100.00
2023-02-11T13:04:48.044Z,100.00
2023-02-11T13:10:36.879Z,100.00
2023-02-11T13:16:01.423Z,100.00
2023-02-11T13:22:08.611Z,100.00
2023-02-11T13:27:59.345Z,100.00
2023-02-11T13:33:36.567Z,100.00
2023-02-11T13:39:05.616Z,100.00
2023-02-11T13:44:28.300Z,100.00
2023-02-11T13:49:51.976Z,100.00
2023-02-11T13:55:13.742Z,100.00
2023-02-11T14:00:35.537Z,100.00
2023-02-11T14:06:09.347Z,100.00
2023-02-11T14:11:34.218Z,100.00
2023-02-11T14:16:59.152Z,100.00
2023-02-11T14:22:40.938Z,100.00
2023-02-11T14:28:16.547Z,100.00
2023-02-11T14:34:06.023Z,100.00
2023-02-11T14:39:49.497Z,100.00
2023-02-11T14:45:19.726Z,100.00
2023-02-11T14:50:49.545Z,100.00
2023-02-11T14:56:23.929Z,100.00
2023-02-11T15:01:50.015Z,100.00
2023-02-11T15:07:13.574Z,100.00
2023-02-11T15:12:35.435Z,100.00
2023-02-11T15:18:00.191Z,100.00
2023-02-11T15:23:26.911Z,100.00
2023-02-11T15:28:48.747Z,100.00
2023-02-11T15:34:12.088Z,100.00
2023-02-11T15:39:39.211Z,100.00
2023-02-11T15:45:21.558Z,100.00
2023-02-11T15:50:50.713Z,100.00
2023-02-11T15:56:21.696Z,100.00
2023-02-11T16:01:45.014Z,100.00
2023-02-11T16:07:06.920Z,100.00
2023-02-11T16:12:28.749Z,100.00
2023-02-11T16:17:50.821Z,100.00
2023-02-11T16:23:36.932Z,100.00
2023-02-11T16:29:14.366Z,100.00
2023-02-11T16:34:36.394Z,100.00
2023-02-11T16:39:58.339Z,100.00
2023-02-11T16:45:20.602Z,100.00
2023-02-11T16:50:51.428Z,100.00
2023-02-11T16:56:18.125Z,100.00
2023-02-11T17:01:42.279Z,100.00
2023-02-11T17:07:04.146Z,100.00
2023-02-11T17:12:25.967Z,100.00
2023-02-11T17:17:47.791Z,100.00
2023-02-11T17:23:09.694Z,100.00
2023-02-11T17:28:31.611Z,100.00
2023-02-11T17:33:53.482Z,100.00
2023-02-11T17:39:15.783Z,100.00
2023-02-11T17:44:38.131Z,100.00
2023-02-11T17:50:00.140Z,100.00
2023-02-11T17:55:22.030Z,100.00
2023-02-11T18:00:43.966Z,100.00
2023-02-11T18:06:07.291Z,100.00
2023-02-11T18:11:30.072Z,100.00
2023-02-11T18:16:52.886Z,100.00
2023-02-11T18:22:15.508Z,100.00
2023-02-11T18:27:37.521Z,100.00
2023-02-11T18:32:59.375Z,100.00
2023-02-11T18:38:21.326Z,100.00
2023-02-11T18:43:43.180Z,100.00
2023-02-11T18:49:05.050Z,100.00
2023-02-11T18:54:26.903Z,100.00
2023-02-11T18:59:48.833Z,100.00
2023-02-11T19:05:10.765Z,100.00
2023-02-11T19:10:32.628Z,100.00
2023-02-11T19:15:54.569Z,100.00
2023-02-11T19:21:16.465Z,100.00
2023-02-11T19:26:38.913Z,100.00
2023-02-11T19:32:02.608Z,100.00
2023-02-11T19:37:24.508Z,100.00
2023-02-11T19:42:46.349Z,100.00
2023-02-11T19:48:12.635Z,100.00
2023-02-11T19:53:34.701Z,100.00
2023-02-11T19:58:57.068Z,100.00
2023-02-11T20:04:18.946Z,100.00
2023-02-11T20:09:40.756Z,100.00
2023-02-11T20:15:02.748Z,100.00
2023-02-11T20:20:24.617Z,100.00
2023-02-11T20:25:46.478Z,100.00
2023-02-11T20:31:09.016Z,100.00
2023-02-11T20:36:33.361Z,100.00
2023-02-11T20:41:55.251Z,100.00
2023-02-11T20:47:17.082Z,100.00
2023-02-11T20:52:39.025Z,100.00
2023-02-11T20:58:00.898Z,100.00
2023-02-11T21:03:22.821Z,100.00
2023-02-11T21:08:44.729Z,100.00
2023-02-11T21:14:06.966Z,100.00
2023-02-11T21:19:28.805Z,100.00
2023-02-11T21:24:50.707Z,99.18
2023-02-11T21:30:12.961Z,97.28
2023-02-11T21:35:36.465Z,96.47
2023-02-11T21:41:04.192Z,96.11
2023-02-11T21:46:26.913Z,96.57
2023-02-11T21:51:48.803Z,94.47
2023-02-11T21:57:10.617Z,94.47
2023-02-11T22:02:32.409Z,94.76
2023-02-11T22:07:54.286Z,93.55
2023-02-11T22:13:16.168Z,92.45
2023-02-11T22:18:38.226Z,92.60
2023-02-11T22:24:00.148Z,92.28
2023-02-11T22:29:22.128Z,93.61
2023-02-11T22:34:44.303Z,92.78
2023-02-11T22:40:06.945Z,91.54
2023-02-11T22:45:28.795Z,91.20
2023-02-11T22:50:50.637Z,90.03
2023-02-11T22:56:15.583Z,88.34
2023-02-11T23:01:38.051Z,88.25
2023-02-11T23:06:59.877Z,87.48
2023-02-11T23:12:21.702Z,88.18
2023-02-11T23:17:43.533Z,87.61
2023-02-11T23:23:05.573Z,87.37
2023-02-11T23:28:27.789Z,88.05
2023-02-11T23:33:50.160Z,87.48
2023-02-11T23:39:14.990Z,88.59
2023-02-11T23:44:36.812Z,88.43
2023-02-11T23:49:59.652Z,87.43
2023-02-11T23:55:21.634Z,87.63
